Terminal Aerodrome Forecast
Issued by NWS

Home | Current Version | Previous Version | Text Only | Print | Product List | Glossary On
Versions: 1 2 3 4 5 6 7 8 9 10 11 12 13 14 15 16 17 18 19 20
292
FTUS43 KLSX 082019 AAA
TAFCPS
TAF AMD
KCPS 082019Z 0820/0918 29018G28KT 6SM -SHSN OVC035
      TEMPO 0821/0823 2SM -SN BKN025
     FM082300 31018G28KT P6SM -SHSN OVC025
     FM090600 31015G25KT P6SM OVC025=

USA.gov is the U.S. government's official web portal to all federal, state and local government web resources and services.